メインページ
METAR-TAF:

METAR-TAF

空港 :

ダラス / フォートワース, テキサス州, アメリカ合衆国

ダラス・フォートワース国際空港

緯度: 32-53-49N, 経度: 097-01-19W, 海抜: 183m

現時点の気象観測

当レポートは17分前の11:53(UTC)に作成
南/南東の風 14kt、最大21ktの突風を伴う
気温 20°C
湿度 78%
気圧 1011 hPa
視程: 14.5km
高度5500ftの千切れ雲あり
高度10000ftの千切れ雲あり
高度25000ftの曇り
小雨

METAR: KDFW 241153Z 16014G21KT 9SM -RA BKN055 BKN100 OVC250 20/16 A2985 RMK AO2 RAB38 SLP102 P0000 60000 T02000156 10211 20200 56013 $

時間: 07:10 (12:10 UTC)

予報

当レポートは46分前の11:24(UTC)に作成
予報は24日の 12時(UTC)から 25日の 18時(UTC)まで有効
の風 16kt
視程: 10km
高度6000ftの千切れ雲あり
高度25000ftの千切れ雲あり
小雨
24日の 1300時(UTC)から
の風 16kt
視程: 10km
高度5000ftの千切れ雲あり
近辺でにわか雨
24日の 14時(UTC)から 24日の 16時(UTC)まで一時的に
視程: 9.7km
高度3000ftの千切れ雲あり
弱いにわか雨
24日の 1600時(UTC)から
南/南西の風 15kt、最大25ktの突風を伴う
視程: 10km
高度7000ftの千切れ雲あり
高度10000ftの千切れ雲あり
24日の 1800時(UTC)から
南/南西の風 20kt、最大30ktの突風を伴う
視程: 10km
高度10000ftの雲はほとんどない
25日の 0000時(UTC)から
南/南西の風 16kt
視程: 10km
高度10000ftの雲はほとんどない
25日の 0300時(UTC)から
西/北西の風 16kt
視程: 10km
高度25000ftの雲はほとんどない

TAF: KDFW 241124Z 2412/2518 17016KT P6SM -RA BKN060 BKN250 FM241300 18016KT P6SM VCSH BKN050 TEMPO 2414/2416 6SM -SHRA BKN030 FM241600 21015G25KT P6SM BKN070 BKN100 FM241800 21020G30KT P6SM FEW100 FM250000 21016KT P6SM FEW100 FM250300 29016KT P6SM FEW250

4,000以上の空港の気象観測と天気予報(METAR報とTAF報)

利用可能な観測所は地図上に黄色い丸と赤い丸で示す。

丸の上にカーソルを重ねると観測所名を参照できる。

次にクリックすると気象観測と天気予報を参照できる。

マップの切り替え:黒色「×」印の緑ボタンをクリックして拡大、「-」印の緑ボタンをクリックして縮小、緑色の三角印をクリックして隣りの地図に切り替え


METAR-TAF: